sensor_id;sensor_type;location;lat;lon;timestamp;P1;durP1;ratioP1;P2;durP2;ratioP2
32329;SDS011;18807;52.434;13.238;2022-11-20T00:03:24;16.77;;;7.85;;
32329;SDS011;18807;52.434;13.238;2022-11-20T00:11:03;14.77;;;7.15;;
32329;SDS011;18807;52.434;13.238;2022-11-20T00:18:42;13.45;;;7.70;;
32329;SDS011;18807;52.434;13.238;2022-11-20T00:26:23;15.40;;;7.82;;
32329;SDS011;18807;52.434;13.238;2022-11-20T00:33:58;13.77;;;7.57;;
32329;SDS011;18807;52.434;13.238;2022-11-20T00:41:34;12.77;;;7.70;;
32329;SDS011;18807;52.434;13.238;2022-11-20T00:49:08;17.55;;;8.07;;
32329;SDS011;18807;52.434;13.238;2022-11-20T00:56:44;11.93;;;6.95;;
32329;SDS011;18807;52.434;13.238;2022-11-20T01:04:18;16.33;;;8.10;;
32329;SDS011;18807;52.434;13.238;2022-11-20T01:11:53;12.68;;;7.13;;
32329;SDS011;18807;52.434;13.238;2022-11-20T01:19:28;14.05;;;7.55;;
32329;SDS011;18807;52.434;13.238;2022-11-20T01:27:03;15.70;;;8.65;;
32329;SDS011;18807;52.434;13.238;2022-11-20T01:34:37;17.02;;;8.18;;
32329;SDS011;18807;52.434;13.238;2022-11-20T01:42:13;13.85;;;7.45;;
32329;SDS011;18807;52.434;13.238;2022-11-20T01:50:05;14.60;;;7.95;;
32329;SDS011;18807;52.434;13.238;2022-11-20T01:57:46;15.88;;;7.57;;
32329;SDS011;18807;52.434;13.238;2022-11-20T02:05:23;14.70;;;7.82;;
32329;SDS011;18807;52.434;13.238;2022-11-20T02:13:03;16.15;;;8.90;;
32329;SDS011;18807;52.434;13.238;2022-11-20T02:20:57;16.27;;;8.60;;
32329;SDS011;18807;52.434;13.238;2022-11-20T02:28:38;13.45;;;7.57;;
32329;SDS011;18807;52.434;13.238;2022-11-20T02:36:14;14.07;;;8.20;;
32329;SDS011;18807;52.434;13.238;2022-11-20T02:43:51;15.68;;;8.07;;
32329;SDS011;18807;52.434;13.238;2022-11-20T02:51:25;17.02;;;8.85;;
32329;SDS011;18807;52.434;13.238;2022-11-20T02:59:00;15.32;;;8.82;;
32329;SDS011;18807;52.434;13.238;2022-11-20T03:06:34;13.18;;;7.65;;
32329;SDS011;18807;52.434;13.238;2022-11-20T03:14:09;21.20;;;9.73;;
32329;SDS011;18807;52.434;13.238;2022-11-20T03:21:43;14.77;;;8.43;;
32329;SDS011;18807;52.434;13.238;2022-11-20T03:36:53;13.82;;;8.23;;
32329;SDS011;18807;52.434;13.238;2022-11-20T03:44:28;20.67;;;9.85;;
32329;SDS011;18807;52.434;13.238;2022-11-20T03:52:02;16.13;;;8.20;;
32329;SDS011;18807;52.434;13.238;2022-11-20T04:14:47;18.52;;;9.52;;
32329;SDS011;18807;52.434;13.238;2022-11-20T04:22:21;18.45;;;8.80;;
32329;SDS011;18807;52.434;13.238;2022-11-20T04:29:56;17.05;;;9.20;;
32329;SDS011;18807;52.434;13.238;2022-11-20T04:37:30;17.33;;;9.23;;
32329;SDS011;18807;52.434;13.238;2022-11-20T04:45:06;19.25;;;9.50;;
32329;SDS011;18807;52.434;13.238;2022-11-20T04:52:40;17.15;;;8.60;;
32329;SDS011;18807;52.434;13.238;2022-11-20T05:00:16;15.02;;;8.95;;
32329;SDS011;18807;52.434;13.238;2022-11-20T05:07:51;19.58;;;10.02;;
32329;SDS011;18807;52.434;13.238;2022-11-20T05:15:26;15.05;;;9.25;;
32329;SDS011;18807;52.434;13.238;2022-11-20T05:23:00;21.13;;;10.23;;
32329;SDS011;18807;52.434;13.238;2022-11-20T05:30:35;17.45;;;9.85;;
32329;SDS011;18807;52.434;13.238;2022-11-20T05:38:09;18.88;;;10.73;;
32329;SDS011;18807;52.434;13.238;2022-11-20T05:45:52;18.67;;;8.98;;
32329;SDS011;18807;52.434;13.238;2022-11-20T05:53:26;18.67;;;9.70;;
32329;SDS011;18807;52.434;13.238;2022-11-20T06:08:41;21.23;;;10.05;;
32329;SDS011;18807;52.434;13.238;2022-11-20T06:23:52;23.02;;;10.82;;
32329;SDS011;18807;52.434;13.238;2022-11-20T06:31:28;19.60;;;9.40;;
32329;SDS011;18807;52.434;13.238;2022-11-20T06:39:05;22.77;;;9.50;;
32329;SDS011;18807;52.434;13.238;2022-11-20T06:46:40;20.67;;;11.40;;
32329;SDS011;18807;52.434;13.238;2022-11-20T06:54:14;19.30;;;10.25;;
32329;SDS011;18807;52.434;13.238;2022-11-20T07:01:49;21.45;;;11.38;;
32329;SDS011;18807;52.434;13.238;2022-11-20T07:09:23;22.88;;;11.40;;
32329;SDS011;18807;52.434;13.238;2022-11-20T07:16:59;18.98;;;10.05;;
32329;SDS011;18807;52.434;13.238;2022-11-20T07:24:33;20.52;;;10.02;;
32329;SDS011;18807;52.434;13.238;2022-11-20T07:32:14;24.80;;;11.35;;
32329;SDS011;18807;52.434;13.238;2022-11-20T07:39:48;23.88;;;11.75;;
32329;SDS011;18807;52.434;13.238;2022-11-20T07:47:23;20.48;;;11.38;;
32329;SDS011;18807;52.434;13.238;2022-11-20T07:54:57;21.80;;;11.18;;
32329;SDS011;18807;52.434;13.238;2022-11-20T08:02:32;21.75;;;10.98;;
32329;SDS011;18807;52.434;13.238;2022-11-20T08:10:07;21.70;;;11.82;;
32329;SDS011;18807;52.434;13.238;2022-11-20T08:17:43;22.88;;;12.30;;
32329;SDS011;18807;52.434;13.238;2022-11-20T08:25:38;24.27;;;12.43;;
32329;SDS011;18807;52.434;13.238;2022-11-20T08:33:13;21.58;;;12.10;;
32329;SDS011;18807;52.434;13.238;2022-11-20T08:40:49;23.10;;;11.40;;
32329;SDS011;18807;52.434;13.238;2022-11-20T08:48:38;22.85;;;12.55;;
32329;SDS011;18807;52.434;13.238;2022-11-20T08:56:12;24.65;;;13.52;;
32329;SDS011;18807;52.434;13.238;2022-11-20T09:03:48;31.10;;;14.10;;
32329;SDS011;18807;52.434;13.238;2022-11-20T09:11:22;23.98;;;12.52;;
32329;SDS011;18807;52.434;13.238;2022-11-20T09:18:57;24.20;;;13.05;;
32329;SDS011;18807;52.434;13.238;2022-11-20T09:26:51;22.85;;;12.88;;
32329;SDS011;18807;52.434;13.238;2022-11-20T09:34:27;23.48;;;10.95;;
32329;SDS011;18807;52.434;13.238;2022-11-20T09:42:07;23.45;;;12.25;;
32329;SDS011;18807;52.434;13.238;2022-11-20T09:50:06;23.30;;;12.43;;
32329;SDS011;18807;52.434;13.238;2022-11-20T09:57:51;26.00;;;11.82;;
32329;SDS011;18807;52.434;13.238;2022-11-20T10:05:27;21.15;;;12.13;;
32329;SDS011;18807;52.434;13.238;2022-11-20T10:13:09;27.80;;;12.10;;
32329;SDS011;18807;52.434;13.238;2022-11-20T10:20:56;28.92;;;12.55;;
32329;SDS011;18807;52.434;13.238;2022-11-20T10:28:42;23.55;;;11.82;;
32329;SDS011;18807;52.434;13.238;2022-11-20T10:36:33;24.20;;;12.05;;
32329;SDS011;18807;52.434;13.238;2022-11-20T10:44:14;22.20;;;12.93;;
32329;SDS011;18807;52.434;13.238;2022-11-20T10:52:12;24.45;;;13.00;;
32329;SDS011;18807;52.434;13.238;2022-11-20T11:00:04;21.25;;;12.18;;
32329;SDS011;18807;52.434;13.238;2022-11-20T11:07:40;20.42;;;11.57;;
32329;SDS011;18807;52.434;13.238;2022-11-20T11:15:24;21.00;;;11.60;;
32329;SDS011;18807;52.434;13.238;2022-11-20T11:23:01;21.17;;;10.80;;
32329;SDS011;18807;52.434;13.238;2022-11-20T11:30:45;18.23;;;10.73;;
32329;SDS011;18807;52.434;13.238;2022-11-20T11:38:26;17.42;;;9.50;;
32329;SDS011;18807;52.434;13.238;2022-11-20T11:46:04;17.58;;;9.30;;
32329;SDS011;18807;52.434;13.238;2022-11-20T11:53:44;15.93;;;8.63;;
32329;SDS011;18807;52.434;13.238;2022-11-20T12:01:21;16.60;;;8.43;;
32329;SDS011;18807;52.434;13.238;2022-11-20T12:09:04;19.05;;;9.35;;
32329;SDS011;18807;52.434;13.238;2022-11-20T12:16:41;10.63;;;6.65;;
32329;SDS011;18807;52.434;13.238;2022-11-20T12:32:22;10.48;;;5.70;;
32329;SDS011;18807;52.434;13.238;2022-11-20T12:40:18;10.15;;;5.90;;
32329;SDS011;18807;52.434;13.238;2022-11-20T12:48:16;10.07;;;5.82;;
32329;SDS011;18807;52.434;13.238;2022-11-20T12:56:04;12.07;;;6.93;;
32329;SDS011;18807;52.434;13.238;2022-11-20T13:03:48;12.35;;;6.95;;
32329;SDS011;18807;52.434;13.238;2022-11-20T13:11:32;13.52;;;6.82;;
32329;SDS011;18807;52.434;13.238;2022-11-20T13:19:11;11.23;;;6.03;;
32329;SDS011;18807;52.434;13.238;2022-11-20T13:26:47;12.88;;;6.70;;
32329;SDS011;18807;52.434;13.238;2022-11-20T13:34:22;13.25;;;6.45;;
32329;SDS011;18807;52.434;13.238;2022-11-20T13:42:00;13.50;;;5.85;;
32329;SDS011;18807;52.434;13.238;2022-11-20T13:49:37;12.48;;;5.88;;
32329;SDS011;18807;52.434;13.238;2022-11-20T13:57:30;9.88;;;5.63;;
32329;SDS011;18807;52.434;13.238;2022-11-20T14:05:17;12.95;;;5.85;;
32329;SDS011;18807;52.434;13.238;2022-11-20T14:12:55;10.20;;;5.70;;
32329;SDS011;18807;52.434;13.238;2022-11-20T14:20:29;13.07;;;5.88;;
32329;SDS011;18807;52.434;13.238;2022-11-20T14:28:05;10.93;;;5.82;;
32329;SDS011;18807;52.434;13.238;2022-11-20T14:35:45;12.25;;;4.93;;
32329;SDS011;18807;52.434;13.238;2022-11-20T14:43:23;13.55;;;6.70;;
32329;SDS011;18807;52.434;13.238;2022-11-20T14:50:58;11.05;;;6.13;;
32329;SDS011;18807;52.434;13.238;2022-11-20T14:58:33;11.55;;;6.40;;
32329;SDS011;18807;52.434;13.238;2022-11-20T15:06:10;13.23;;;7.68;;
32329;SDS011;18807;52.434;13.238;2022-11-20T15:13:46;22.08;;;9.00;;
32329;SDS011;18807;52.434;13.238;2022-11-20T15:21:20;16.98;;;8.13;;
32329;SDS011;18807;52.434;13.238;2022-11-20T15:28:56;14.63;;;7.50;;
32329;SDS011;18807;52.434;13.238;2022-11-20T15:36:30;15.20;;;7.68;;
32329;SDS011;18807;52.434;13.238;2022-11-20T15:44:06;13.45;;;7.05;;
32329;SDS011;18807;52.434;13.238;2022-11-20T15:51:41;14.48;;;8.18;;
32329;SDS011;18807;52.434;13.238;2022-11-20T15:59:17;13.50;;;7.55;;
32329;SDS011;18807;52.434;13.238;2022-11-20T16:06:51;22.10;;;11.32;;
32329;SDS011;18807;52.434;13.238;2022-11-20T16:14:26;21.73;;;13.05;;
32329;SDS011;18807;52.434;13.238;2022-11-20T16:22:18;19.92;;;12.00;;
32329;SDS011;18807;52.434;13.238;2022-11-20T16:29:53;17.23;;;10.18;;
32329;SDS011;18807;52.434;13.238;2022-11-20T16:37:28;15.35;;;8.80;;
32329;SDS011;18807;52.434;13.238;2022-11-20T16:52:38;16.15;;;9.40;;
32329;SDS011;18807;52.434;13.238;2022-11-20T17:00:15;15.38;;;8.65;;
32329;SDS011;18807;52.434;13.238;2022-11-20T17:07:49;18.92;;;8.95;;
32329;SDS011;18807;52.434;13.238;2022-11-20T17:15:25;20.10;;;11.52;;
32329;SDS011;18807;52.434;13.238;2022-11-20T17:22:59;20.27;;;11.32;;
32329;SDS011;18807;52.434;13.238;2022-11-20T17:30:34;15.52;;;10.65;;
32329;SDS011;18807;52.434;13.238;2022-11-20T17:38:08;25.10;;;15.27;;
32329;SDS011;18807;52.434;13.238;2022-11-20T17:45:43;18.92;;;12.60;;
32329;SDS011;18807;52.434;13.238;2022-11-20T17:53:18;21.17;;;11.85;;
32329;SDS011;18807;52.434;13.238;2022-11-20T18:00:53;19.08;;;11.25;;
32329;SDS011;18807;52.434;13.238;2022-11-20T18:08:28;19.80;;;12.18;;
32329;SDS011;18807;52.434;13.238;2022-11-20T18:16:06;21.42;;;12.55;;
32329;SDS011;18807;52.434;13.238;2022-11-20T18:23:40;22.10;;;12.40;;
32329;SDS011;18807;52.434;13.238;2022-11-20T18:31:15;21.48;;;12.15;;
32329;SDS011;18807;52.434;13.238;2022-11-20T18:38:50;21.17;;;12.23;;
32329;SDS011;18807;52.434;13.238;2022-11-20T18:46:30;23.50;;;13.55;;
32329;SDS011;18807;52.434;13.238;2022-11-20T18:54:05;22.02;;;13.65;;
32329;SDS011;18807;52.434;13.238;2022-11-20T19:01:40;25.48;;;15.57;;
32329;SDS011;18807;52.434;13.238;2022-11-20T19:09:14;24.88;;;13.80;;
32329;SDS011;18807;52.434;13.238;2022-11-20T19:24:24;24.38;;;14.35;;
32329;SDS011;18807;52.434;13.238;2022-11-20T19:32:01;21.27;;;11.68;;
32329;SDS011;18807;52.434;13.238;2022-11-20T19:39:36;23.15;;;12.25;;
32329;SDS011;18807;52.434;13.238;2022-11-20T19:47:11;35.90;;;16.23;;
32329;SDS011;18807;52.434;13.238;2022-11-20T19:54:46;26.17;;;14.48;;
32329;SDS011;18807;52.434;13.238;2022-11-20T20:02:21;24.08;;;13.02;;
32329;SDS011;18807;52.434;13.238;2022-11-20T20:09:55;26.95;;;14.32;;
32329;SDS011;18807;52.434;13.238;2022-11-20T20:17:30;27.10;;;15.50;;
32329;SDS011;18807;52.434;13.238;2022-11-20T20:25:05;25.67;;;15.13;;
32329;SDS011;18807;52.434;13.238;2022-11-20T20:32:40;25.13;;;13.90;;
32329;SDS011;18807;52.434;13.238;2022-11-20T20:40:14;22.00;;;12.48;;
32329;SDS011;18807;52.434;13.238;2022-11-20T20:47:51;23.67;;;13.18;;
32329;SDS011;18807;52.434;13.238;2022-11-20T20:55:26;20.65;;;12.27;;
32329;SDS011;18807;52.434;13.238;2022-11-20T21:10:36;21.63;;;13.18;;
32329;SDS011;18807;52.434;13.238;2022-11-20T21:18:11;21.38;;;13.55;;
32329;SDS011;18807;52.434;13.238;2022-11-20T21:25:45;25.95;;;14.88;;
32329;SDS011;18807;52.434;13.238;2022-11-20T21:48:31;27.85;;;15.07;;
32329;SDS011;18807;52.434;13.238;2022-11-20T21:56:06;34.13;;;16.00;;
32329;SDS011;18807;52.434;13.238;2022-11-20T22:03:45;35.58;;;16.85;;
32329;SDS011;18807;52.434;13.238;2022-11-20T22:11:21;30.98;;;15.23;;
32329;SDS011;18807;52.434;13.238;2022-11-20T22:26:31;27.92;;;15.00;;
32329;SDS011;18807;52.434;13.238;2022-11-20T22:34:13;30.20;;;13.80;;
32329;SDS011;18807;52.434;13.238;2022-11-20T22:41:47;24.65;;;13.30;;
32329;SDS011;18807;52.434;13.238;2022-11-20T22:49:22;26.73;;;14.32;;
32329;SDS011;18807;52.434;13.238;2022-11-20T22:56:56;28.77;;;15.82;;
32329;SDS011;18807;52.434;13.238;2022-11-20T23:04:32;27.48;;;14.43;;
32329;SDS011;18807;52.434;13.238;2022-11-20T23:12:06;24.00;;;11.98;;
32329;SDS011;18807;52.434;13.238;2022-11-20T23:19:41;26.65;;;12.98;;
32329;SDS011;18807;52.434;13.238;2022-11-20T23:27:15;23.42;;;12.05;;
32329;SDS011;18807;52.434;13.238;2022-11-20T23:34:52;24.88;;;11.10;;
32329;SDS011;18807;52.434;13.238;2022-11-20T23:42:26;20.38;;;12.60;;
32329;SDS011;18807;52.434;13.238;2022-11-20T23:50:02;23.60;;;12.60;;
32329;SDS011;18807;52.434;13.238;2022-11-20T23:57:36;23.58;;;11.27;;
